Time;durP1;ratioP1;P1;durP2;ratioP2;P2;SDS_P1;SDS_P2;PMS_P1;PMS_P2;Temp;Humidity;BMP_temperature;BMP_pressure;BME280_temperature;BME280_humidity;BME280_pressure;Samples;Min_cycle;Max_cycle;Signal;HPM_P1;HPM_P2
2022/07/02 00:01:03;;;;;;;;;;;;;;;23.93;60.40;99858.69;4919053;29;19930;-73
2022/07/02 00:03:32;;;;;;;;;;;;;;;23.96;60.33;99863.75;4938174;29;20381;-73
2022/07/02 00:06:02;;;;;;;;;;;;;;;23.91;60.36;99855.31;4936167;29;19927;-73
2022/07/02 00:08:31;;;;;;;;;;;;;;;23.88;60.23;99855.47;4935561;29;19973;-73
2022/07/02 00:11:01;;;;;;;;;;;;;;;23.87;60.56;99864.22;4936301;29;19966;-72
2022/07/02 00:13:29;;;;;;;;;;;;;;;23.84;60.58;99859.19;4935905;29;19923;-73
2022/07/02 00:15:58;;;;;;;;;;;;;;;23.78;60.76;99849.03;4937016;29;19926;-73
2022/07/02 00:18:28;;;;;;;;;;;;;;;23.74;60.81;99868.38;4934942;29;19955;-73
2022/07/02 00:20:57;;;;;;;;;;;;;;;23.68;60.97;99884.31;4934644;29;19923;-71
2022/07/02 00:23:26;;;;;;;;;;;;;;;23.56;61.20;99884.97;4934907;29;19929;-72
2022/07/02 00:25:57;;;;;;;;;;;;;;;23.42;61.14;99884.81;4936441;29;19967;-72
2022/07/02 00:28:28;;;;;;;;;;;;;;;23.32;60.45;99873.97;4938892;29;20292;-72
2022/07/02 00:30:57;;;;;;;;;;;;;;;23.26;60.43;99873.44;4935739;29;19963;-73
2022/07/02 00:33:26;;;;;;;;;;;;;;;23.23;60.74;99870.97;4932027;29;19929;-72
2022/07/02 00:35:57;;;;;;;;;;;;;;;23.30;60.70;99873.19;4935870;29;19923;-72
2022/07/02 00:38:25;;;;;;;;;;;;;;;23.22;60.75;99874.50;4934179;29;19930;-72
2022/07/02 00:40:55;;;;;;;;;;;;;;;23.01;61.50;99872.94;4933873;29;19929;-72
2022/07/02 00:43:23;;;;;;;;;;;;;;;22.86;62.04;99871.94;4936269;29;20276;-72
2022/07/02 00:45:52;;;;;;;;;;;;;;;22.78;62.19;99867.97;4936601;29;19923;-72
2022/07/02 00:48:20;;;;;;;;;;;;;;;22.79;62.20;99865.34;4934403;29;20013;-73
2022/07/02 00:50:49;;;;;;;;;;;;;;;22.76;62.50;99868.06;4935045;29;19923;-72
2022/07/02 00:53:20;;;;;;;;;;;;;;;22.63;63.02;99867.78;4935883;29;19931;-72
2022/07/02 00:55:55;;;;;;;;;;;;;;;22.62;63.50;99863.53;4934855;29;19945;-73
2022/07/02 00:58:24;;;;;;;;;;;;;;;22.53;63.88;99861.28;4936139;29;20262;-72
2022/07/02 01:00:53;;;;;;;;;;;;;;;22.57;64.11;99849.00;4934819;29;19977;-73
2022/07/02 01:03:22;;;;;;;;;;;;;;;22.54;64.29;99843.94;4935316;29;20365;-72
2022/07/02 01:05:52;;;;;;;;;;;;;;;22.41;64.59;99843.66;4934160;29;20374;-72
2022/07/02 01:11:03;;;;;;;;;;;;;;;22.23;65.27;99830.66;4917498;29;19923;-75
2022/07/02 01:13:32;;;;;;;;;;;;;;;22.21;65.31;99825.53;4936136;29;19922;-72
2022/07/02 01:16:01;;;;;;;;;;;;;;;22.14;65.60;99829.34;4935021;29;19947;-73
2022/07/02 01:18:38;;;;;;;;;;;;;;;22.10;66.00;99837.34;4936031;29;20166;-72
2022/07/02 01:21:07;;;;;;;;;;;;;;;22.03;66.16;99836.75;4916940;29;20365;-72
2022/07/02 01:23:37;;;;;;;;;;;;;;;21.98;66.45;99828.31;4930763;29;20317;-72
2022/07/02 01:26:06;;;;;;;;;;;;;;;21.98;66.43;99836.97;4933867;29;19923;-73
2022/07/02 01:28:35;;;;;;;;;;;;;;;22.03;66.39;99844.56;4935251;29;19954;-72
2022/07/02 01:31:04;;;;;;;;;;;;;;;22.05;66.54;99845.34;4937622;29;19930;-72
2022/07/02 01:33:33;;;;;;;;;;;;;;;22.00;66.54;99836.91;4937065;29;20010;-72
2022/07/02 01:36:01;;;;;;;;;;;;;;;21.97;66.56;99821.44;4936721;29;19958;-72
2022/07/02 01:38:30;;;;;;;;;;;;;;;21.99;66.72;99835.22;4936404;29;19923;-72
2022/07/02 01:43:42;;;;;;;;;;;;;;;22.01;66.29;99849.84;4934113;29;19995;-73
2022/07/02 01:46:11;;;;;;;;;;;;;;;22.00;66.23;99839.50;4933561;29;19926;-72
2022/07/02 01:48:40;;;;;;;;;;;;;;;21.89;66.15;99833.94;4935005;29;19923;-72
2022/07/02 01:51:08;;;;;;;;;;;;;;;21.82;66.04;99828.13;4935435;29;20360;-73
2022/07/02 01:53:37;;;;;;;;;;;;;;;21.79;65.60;99833.47;4932549;29;19978;-72
2022/07/02 01:56:07;;;;;;;;;;;;;;;21.78;65.64;99830.94;4934497;29;19936;-73
2022/07/02 01:58:35;;;;;;;;;;;;;;;21.76;65.36;99837.97;4934990;29;19923;-72
2022/07/02 02:01:04;;;;;;;;;;;;;;;21.77;65.15;99834.44;4934115;29;19930;-72
2022/07/02 02:03:33;;;;;;;;;;;;;;;21.78;65.08;99841.34;4935809;29;19926;-73
2022/07/02 02:06:01;;;;;;;;;;;;;;;21.76;64.87;99843.16;4935902;29;19922;-73
2022/07/02 02:08:30;;;;;;;;;;;;;;;21.75;64.67;99857.06;4935514;29;20281;-72
2022/07/02 02:10:58;;;;;;;;;;;;;;;21.69;64.62;99868.53;4932683;29;19962;-72
2022/07/02 02:13:28;;;;;;;;;;;;;;;21.62;64.46;99881.88;4934080;29;20017;-73
2022/07/02 02:15:57;;;;;;;;;;;;;;;21.60;64.54;99883.69;4931521;29;19923;-73
2022/07/02 02:18:25;;;;;;;;;;;;;;;21.56;64.46;99893.38;4935646;29;19945;-73
2022/07/02 02:20:54;;;;;;;;;;;;;;;21.60;64.26;99899.28;4933611;29;20017;-73
2022/07/02 02:23:23;;;;;;;;;;;;;;;21.63;64.21;99894.81;4934158;29;19992;-72
2022/07/02 02:25:51;;;;;;;;;;;;;;;21.55;63.96;99896.88;4934135;29;19923;-73
2022/07/02 02:28:22;;;;;;;;;;;;;;;21.54;64.09;99896.94;4936598;29;19927;-72
2022/07/02 02:30:52;;;;;;;;;;;;;;;21.57;64.05;99891.63;4935229;29;19977;-72
2022/07/02 02:33:21;;;;;;;;;;;;;;;21.57;64.04;99889.03;4934043;29;19977;-72
2022/07/02 02:35:49;;;;;;;;;;;;;;;21.58;63.92;99880.31;4935779;29;19958;-73
2022/07/02 02:38:18;;;;;;;;;;;;;;;21.58;63.75;99870.78;4934024;29;19923;-73
2022/07/02 02:40:47;;;;;;;;;;;;;;;21.58;63.72;99885.50;4934792;29;19923;-72
2022/07/02 02:43:16;;;;;;;;;;;;;;;21.62;63.52;99884.50;4933774;29;19946;-73
2022/07/02 02:45:44;;;;;;;;;;;;;;;21.61;63.32;99867.19;4934914;29;19923;-72
2022/07/02 02:48:14;;;;;;;;;;;;;;;21.61;63.24;99873.25;4931707;29;19954;-72
2022/07/02 02:50:43;;;;;;;;;;;;;;;21.59;63.06;99872.47;4933073;29;20022;-73
2022/07/02 02:53:12;;;;;;;;;;;;;;;21.58;63.03;99864.72;4931961;29;19934;-73
2022/07/02 02:55:40;;;;;;;;;;;;;;;21.52;62.96;99871.03;4932562;29;19923;-73
2022/07/02 02:58:09;;;;;;;;;;;;;;;21.54;63.07;99873.56;4933666;29;19939;-74
2022/07/02 03:00:37;;;;;;;;;;;;;;;21.59;62.81;99887.22;4934572;29;19930;-73
2022/07/02 03:03:09;;;;;;;;;;;;;;;21.62;62.79;99887.91;4935361;29;19926;-73
2022/07/02 03:05:39;;;;;;;;;;;;;;;21.58;62.86;99890.69;4935896;29;19929;-72
2022/07/02 03:08:07;;;;;;;;;;;;;;;21.57;62.88;99889.84;4931503;29;19927;-73
2022/07/02 03:10:36;;;;;;;;;;;;;;;21.59;62.81;99902.81;4932607;29;19930;-72
2022/07/02 03:13:04;;;;;;;;;;;;;;;21.57;62.96;99904.63;4934452;29;19929;-73
2022/07/02 03:15:33;;;;;;;;;;;;;;;21.58;62.90;99916.69;4933452;29;19929;-72
2022/07/02 03:18:01;;;;;;;;;;;;;;;21.59;62.81;99919.25;4933856;29;19923;-73
2022/07/02 03:20:31;;;;;;;;;;;;;;;21.61;62.79;99926.97;4930302;29;19922;-73
2022/07/02 03:23:01;;;;;;;;;;;;;;;21.57;62.99;99931.41;4933210;29;19934;-73
2022/07/02 03:25:29;;;;;;;;;;;;;;;21.57;63.36;99941.81;4932261;29;19926;-73
2022/07/02 03:27:58;;;;;;;;;;;;;;;21.56;63.13;99947.09;4933409;29;19969;-73
2022/07/02 03:30:27;;;;;;;;;;;;;;;21.54;63.40;99954.09;4932817;29;19961;-73
2022/07/02 03:32:55;;;;;;;;;;;;;;;21.57;63.22;99960.00;4936969;29;19969;-73
2022/07/02 03:35:24;;;;;;;;;;;;;;;21.58;63.32;99963.44;4937144;29;19922;-72
2022/07/02 03:37:52;;;;;;;;;;;;;;;21.58;63.62;99968.63;4939367;29;19922;-73
2022/07/02 03:40:22;;;;;;;;;;;;;;;21.65;63.46;99970.09;4937231;29;19923;-75
2022/07/02 03:42:51;;;;;;;;;;;;;;;21.68;63.12;99965.63;4929813;29;19922;-72
2022/07/02 03:45:19;;;;;;;;;;;;;;;21.67;62.82;99960.47;4935632;29;19966;-73
2022/07/02 03:47:48;;;;;;;;;;;;;;;21.69;63.09;99967.28;4939110;29;20297;-72
2022/07/02 03:50:17;;;;;;;;;;;;;;;21.74;63.05;99967.13;4938980;29;20404;-72
2022/07/02 03:52:45;;;;;;;;;;;;;;;21.77;62.84;99969.56;4939053;29;19924;-72
2022/07/02 03:55:14;;;;;;;;;;;;;;;21.80;62.81;99974.66;4939394;29;19962;-72
2022/07/02 03:57:44;;;;;;;;;;;;;;;21.83;62.72;99966.72;4939043;29;19965;-73
2022/07/02 04:00:13;;;;;;;;;;;;;;;21.88;62.60;99967.41;4939391;29;19923;-72
2022/07/02 04:02:42;;;;;;;;;;;;;;;21.85;62.34;99959.75;4939052;29;19922;-72
2022/07/02 04:05:10;;;;;;;;;;;;;;;21.87;62.62;99968.31;4935210;29;20014;-71
2022/07/02 04:07:39;;;;;;;;;;;;;;;21.96;62.43;99975.72;4936618;29;19923;-72
2022/07/02 04:10:08;;;;;;;;;;;;;;;22.01;62.17;99984.16;4932404;29;19947;-72
2022/07/02 04:12:36;;;;;;;;;;;;;;;22.02;62.22;99980.69;4933397;29;20384;-71
2022/07/02 04:15:07;;;;;;;;;;;;;;;21.99;62.13;99986.84;4934051;29;19978;-71
2022/07/02 04:17:36;;;;;;;;;;;;;;;21.99;62.20;99999.00;4937138;29;19923;-71
2022/07/02 04:20:04;;;;;;;;;;;;;;;22.01;61.96;99998.03;4939144;29;19922;-71
2022/07/02 04:22:33;;;;;;;;;;;;;;;22.04;62.02;99999.66;4936772;29;19923;-71
2022/07/02 04:25:01;;;;;;;;;;;;;;;22.07;62.06;100002.13;4934487;29;19961;-71
2022/07/02 04:27:30;;;;;;;;;;;;;;;22.08;62.11;100006.41;4935957;29;19926;-72
2022/07/02 04:29:59;;;;;;;;;;;;;;;22.15;61.90;100013.03;4936508;29;19943;-71
2022/07/02 04:32:34;;;;;;;;;;;;;;;22.26;61.88;100016.03;4936778;29;19923;-71
2022/07/02 04:35:12;;;;;;;;;;;;;;;22.34;61.47;100011.31;4933300;29;20013;-72
2022/07/02 04:37:40;;;;;;;;;;;;;;;22.43;61.42;100008.34;4935403;29;20021;-71
2022/07/02 04:40:09;;;;;;;;;;;;;;;22.53;60.88;100004.41;4936483;29;19923;-71
2022/07/02 04:42:38;;;;;;;;;;;;;;;22.62;61.03;100004.06;4933962;29;19929;-71
2022/07/02 04:45:07;;;;;;;;;;;;;;;22.73;60.62;100007.91;4936516;29;19923;-71
2022/07/02 04:47:37;;;;;;;;;;;;;;;22.81;60.39;100013.63;4937084;29;19922;-71
2022/07/02 04:50:06;;;;;;;;;;;;;;;22.83;60.13;100006.59;4933631;29;19929;-72
2022/07/02 04:52:34;;;;;;;;;;;;;;;22.91;59.98;100015.75;4928151;29;19922;-71
2022/07/02 04:55:03;;;;;;;;;;;;;;;22.99;59.94;100010.16;4934708;29;19970;-72
2022/07/02 04:57:33;;;;;;;;;;;;;;;23.06;59.35;100015.03;4937040;29;19929;-72
2022/07/02 05:00:02;;;;;;;;;;;;;;;23.19;59.16;100015.31;4935587;29;19930;-72
2022/07/02 05:02:30;;;;;;;;;;;;;;;23.27;58.66;100013.19;4934872;29;19976;-72
2022/07/02 05:05:00;;;;;;;;;;;;;;;23.26;58.43;100006.28;4935484;29;20035;-72
2022/07/02 05:07:30;;;;;;;;;;;;;;;23.35;58.11;100011.09;4937428;29;19923;-72
2022/07/02 05:09:58;;;;;;;;;;;;;;;23.41;58.08;100013.41;4936043;29;19929;-72
2022/07/02 05:12:27;;;;;;;;;;;;;;;23.45;57.67;100017.56;4931475;29;19931;-72
2022/07/02 05:14:59;;;;;;;;;;;;;;;23.54;57.44;100014.50;4934022;29;19926;-72
2022/07/02 05:17:27;;;;;;;;;;;;;;;23.62;57.17;100019.34;4933958;29;19954;-72
2022/07/02 05:20:01;;;;;;;;;;;;;;;23.67;57.29;100018.22;4935806;29;19929;-71
2022/07/02 05:22:29;;;;;;;;;;;;;;;23.67;56.94;100022.56;4934991;29;19950;-72
2022/07/02 05:24:58;;;;;;;;;;;;;;;23.68;56.92;100014.66;4933810;29;19923;-71
2022/07/02 05:27:26;;;;;;;;;;;;;;;23.74;56.97;100019.59;4935543;29;19923;-72
2022/07/02 05:29:54;;;;;;;;;;;;;;;23.83;56.78;100013.91;4937674;29;19923;-71
2022/07/02 05:32:23;;;;;;;;;;;;;;;23.92;56.75;100018.66;4937280;29;20017;-71
2022/07/02 05:34:51;;;;;;;;;;;;;;;23.99;56.64;100025.25;4937361;29;20361;-70
2022/07/02 05:37:26;;;;;;;;;;;;;;;24.00;56.18;100026.97;4935324;29;19927;-71
2022/07/02 05:39:56;;;;;;;;;;;;;;;23.97;55.92;100024.50;4919700;29;20352;-71
2022/07/02 05:42:24;;;;;;;;;;;;;;;23.93;55.96;100025.59;4935537;29;20013;-71
2022/07/02 05:44:53;;;;;;;;;;;;;;;23.96;55.87;100035.03;4933777;29;19929;-71
2022/07/02 05:47:21;;;;;;;;;;;;;;;24.00;55.50;100040.00;4936322;29;19927;-72
2022/07/02 05:49:50;;;;;;;;;;;;;;;24.13;55.76;100042.88;4932542;29;19934;-72
2022/07/02 05:52:19;;;;;;;;;;;;;;;24.24;55.46;100047.53;4933569;29;19978;-71
2022/07/02 05:54:49;;;;;;;;;;;;;;;24.28;54.97;100036.06;4933096;29;19929;-71
2022/07/02 05:57:17;;;;;;;;;;;;;;;24.35;55.35;100035.66;4932720;29;19937;-70
2022/07/02 05:59:46;;;;;;;;;;;;;;;24.41;55.22;100043.16;4932470;29;20320;-71
2022/07/02 06:02:15;;;;;;;;;;;;;;;24.53;55.34;100037.31;4929702;29;19922;-72
2022/07/02 06:04:44;;;;;;;;;;;;;;;24.60;55.02;100049.13;4931006;29;19978;-72
2022/07/02 06:09:52;;;;;;;;;;;;;;;24.79;54.44;100053.38;4937167;29;19927;-71
2022/07/02 06:12:22;;;;;;;;;;;;;;;24.83;54.63;100054.94;4935171;29;19931;-72
2022/07/02 06:14:50;;;;;;;;;;;;;;;24.93;53.98;100067.41;4935620;29;19977;-71
2022/07/02 06:17:18;;;;;;;;;;;;;;;25.05;54.00;100066.75;4936947;29;19930;-72
2022/07/02 06:19:48;;;;;;;;;;;;;;;25.14;53.79;100066.28;4936722;29;19923;-71
2022/07/02 06:22:18;;;;;;;;;;;;;;;25.18;53.25;100073.00;4936788;29;19929;-71
2022/07/02 06:24:46;;;;;;;;;;;;;;;25.16;53.17;100079.25;4935110;29;19922;-72
2022/07/02 06:27:18;;;;;;;;;;;;;;;25.16;53.25;100074.03;4936260;29;19929;-71
2022/07/02 06:29:48;;;;;;;;;;;;;;;25.22;53.95;100077.13;4933875;29;19938;-72
2022/07/02 06:32:17;;;;;;;;;;;;;;;25.25;53.37;100079.59;4936352;29;19922;-71
2022/07/02 06:34:46;;;;;;;;;;;;;;;25.34;52.91;100085.25;4936460;29;19923;-71
2022/07/02 06:37:14;;;;;;;;;;;;;;;25.24;52.65;100083.13;4933243;29;19927;-73
2022/07/02 06:39:43;;;;;;;;;;;;;;;25.33;53.09;100086.16;4929643;29;19970;-74
2022/07/02 06:44:55;;;;;;;;;;;;;;;25.67;53.08;100096.50;4934058;29;19923;-71
2022/07/02 06:47:26;;;;;;;;;;;;;;;25.75;52.52;100096.88;4933569;29;19954;-71
2022/07/02 06:49:55;;;;;;;;;;;;;;;25.84;52.09;100099.00;4936519;29;19970;-72
2022/07/02 06:52:24;;;;;;;;;;;;;;;25.87;51.81;100104.03;4934303;29;19922;-72
2022/07/02 06:54:53;;;;;;;;;;;;;;;25.80;51.94;100097.47;4933569;29;19991;-73
2022/07/02 06:57:21;;;;;;;;;;;;;;;25.71;52.08;100113.69;4933381;29;20483;-72
2022/07/02 06:59:53;;;;;;;;;;;;;;;25.66;52.23;100108.72;4932575;29;19923;-72
2022/07/02 07:02:23;;;;;;;;;;;;;;;25.75;52.05;100104.72;4929266;29;19927;-72
2022/07/02 07:04:52;;;;;;;;;;;;;;;25.80;51.86;100110.53;4934307;29;19922;-70
2022/07/02 07:07:26;;;;;;;;;;;;;;;25.77;52.06;100118.59;4940021;29;20258;-71
2022/07/02 07:09:55;;;;;;;;;;;;;;;25.82;51.34;100111.31;4936154;29;20368;-72
2022/07/02 07:12:24;;;;;;;;;;;;;;;25.85;51.56;100111.13;4940005;29;20021;-72
2022/07/02 07:14:53;;;;;;;;;;;;;;;25.87;51.51;100115.34;4939640;29;19954;-72
2022/07/02 07:17:23;;;;;;;;;;;;;;;25.90;51.83;100119.56;4939982;29;19948;-72
2022/07/02 07:19:51;;;;;;;;;;;;;;;26.01;51.69;100122.41;4939861;29;19982;-72
2022/07/02 07:22:20;;;;;;;;;;;;;;;26.10;50.90;100121.91;4939660;29;19974;-71
2022/07/02 07:24:49;;;;;;;;;;;;;;;26.19;51.15;100125.78;4940584;29;20013;-72
2022/07/02 07:27:18;;;;;;;;;;;;;;;26.24;50.50;100129.84;4939644;29;19922;-71
2022/07/02 07:29:46;;;;;;;;;;;;;;;26.22;50.44;100134.31;4939860;29;19923;-71
2022/07/02 07:32:15;;;;;;;;;;;;;;;26.03;50.49;100136.28;4939513;29;19954;-72
2022/07/02 07:34:45;;;;;;;;;;;;;;;25.90;50.89;100148.34;4939489;29;20021;-71
2022/07/02 07:37:14;;;;;;;;;;;;;;;25.79;51.01;100137.66;4939721;29;19929;-72
2022/07/02 07:39:43;;;;;;;;;;;;;;;25.75;51.19;100157.03;4939413;29;19930;-72
2022/07/02 07:42:11;;;;;;;;;;;;;;;25.76;51.38;100163.97;4939471;29;19933;-71
2022/07/02 07:44:40;;;;;;;;;;;;;;;25.87;51.24;100151.13;4939561;29;20329;-71
2022/07/02 07:47:09;;;;;;;;;;;;;;;26.01;50.87;100148.56;4939599;29;19923;-72
2022/07/02 07:49:39;;;;;;;;;;;;;;;26.18;50.89;100156.34;4922670;29;19929;-72
2022/07/02 07:52:09;;;;;;;;;;;;;;;26.27;50.40;100158.47;4939530;29;19930;-72
2022/07/02 07:54:38;;;;;;;;;;;;;;;26.26;50.15;100154.16;4940164;29;19923;-72
2022/07/02 07:57:07;;;;;;;;;;;;;;;26.08;50.52;100165.66;4938864;29;19922;-72
2022/07/02 07:59:35;;;;;;;;;;;;;;;25.94;50.83;100157.69;4939099;29;20360;-72
2022/07/02 08:02:04;;;;;;;;;;;;;;;25.88;51.60;100158.06;4939231;29;19930;-71
2022/07/02 08:04:33;;;;;;;;;;;;;;;26.04;50.88;100158.88;4938945;29;19926;-72
2022/07/02 08:07:02;;;;;;;;;;;;;;;26.08;51.04;100155.19;4939337;29;19961;-72
2022/07/02 08:09:31;;;;;;;;;;;;;;;26.08;50.87;100149.94;4939172;29;20071;-72
2022/07/02 08:12:00;;;;;;;;;;;;;;;26.20;50.61;100153.66;4939461;29;20364;-72
2022/07/02 08:14:29;;;;;;;;;;;;;;;26.24;50.37;100150.78;4939057;29;20369;-72
2022/07/02 08:16:57;;;;;;;;;;;;;;;26.16;50.52;100152.97;4938628;29;19930;-72
2022/07/02 08:19:26;;;;;;;;;;;;;;;26.03;50.50;100157.22;4938693;29;19922;-72
2022/07/02 08:21:55;;;;;;;;;;;;;;;25.93;51.81;100150.81;4938967;29;20428;-72
2022/07/02 08:24:23;;;;;;;;;;;;;;;25.79;51.72;100153.34;4938616;29;19922;-71
2022/07/02 08:26:53;;;;;;;;;;;;;;;25.67;51.66;100143.56;4939167;29;20386;-72
2022/07/02 08:29:22;;;;;;;;;;;;;;;25.65;51.83;100148.84;4938590;29;19926;-71
2022/07/02 08:31:52;;;;;;;;;;;;;;;25.67;51.84;100148.78;4938443;29;20021;-71
2022/07/02 08:34:21;;;;;;;;;;;;;;;25.77;51.19;100156.03;4938827;29;19998;-71
2022/07/02 08:36:49;;;;;;;;;;;;;;;25.96;51.21;100155.88;4938495;29;19923;-72
2022/07/02 08:39:18;;;;;;;;;;;;;;;26.10;50.45;100153.31;4938653;29;20280;-72
2022/07/02 08:41:47;;;;;;;;;;;;;;;26.22;50.60;100152.66;4938298;29;19994;-72
2022/07/02 08:44:17;;;;;;;;;;;;;;;26.45;50.58;100154.78;4938564;29;19958;-71
2022/07/02 08:46:47;;;;;;;;;;;;;;;26.79;50.02;100142.31;4938903;29;19922;-72
2022/07/02 08:49:18;;;;;;;;;;;;;;;27.06;48.94;100156.41;4938173;29;20388;-72
2022/07/02 08:51:50;;;;;;;;;;;;;;;27.20;48.05;100153.78;4938221;29;19929;-72
2022/07/02 08:54:19;;;;;;;;;;;;;;;27.42;48.12;100148.91;4938434;29;20300;-72
2022/07/02 08:56:47;;;;;;;;;;;;;;;27.70;47.91;100143.59;4937917;29;19931;-72
2022/07/02 08:59:31;;;;;;;;;;;;;;;27.81;47.06;100146.38;4937993;29;19966;-72
2022/07/02 09:02:00;;;;;;;;;;;;;;;27.88;46.23;100142.41;4938318;29;19926;-71
2022/07/02 09:04:29;;;;;;;;;;;;;;;27.87;46.05;100135.50;4938240;29;20092;-72
2022/07/02 09:06:58;;;;;;;;;;;;;;;28.05;46.19;100137.91;4938188;29;19970;-70
2022/07/02 09:09:27;;;;;;;;;;;;;;;28.12;46.02;100133.94;4937771;29;19922;-72
2022/07/02 09:11:55;;;;;;;;;;;;;;;28.41;46.01;100140.75;4937696;29;19923;-72
2022/07/02 09:14:24;;;;;;;;;;;;;;;28.61;45.47;100142.88;4937641;29;19944;-72
2022/07/02 09:16:54;;;;;;;;;;;;;;;28.84;45.31;100139.53;4937777;29;19926;-71
2022/07/02 09:19:23;;;;;;;;;;;;;;;28.99;45.36;100141.09;4920927;29;20021;-72
2022/07/02 09:21:52;;;;;;;;;;;;;;;28.97;44.83;100137.75;4937785;29;19930;-71
2022/07/02 09:24:28;;;;;;;;;;;;;;;29.03;45.70;100134.66;4937453;29;19930;-72
2022/07/02 09:27:00;;;;;;;;;;;;;;;29.03;45.06;100129.41;4937509;29;19929;-72
2022/07/02 09:29:30;;;;;;;;;;;;;;;28.83;44.96;100134.38;4936982;29;19922;-71
2022/07/02 09:32:00;;;;;;;;;;;;;;;28.51;44.82;100134.75;4937610;29;19922;-71
2022/07/02 09:34:29;;;;;;;;;;;;;;;28.30;44.96;100132.72;4937669;29;20484;-72
2022/07/02 09:36:57;;;;;;;;;;;;;;;28.18;45.25;100133.53;4937198;29;19922;-71
2022/07/02 09:39:31;;;;;;;;;;;;;;;28.06;45.52;100129.06;4937612;29;20289;-71
2022/07/02 09:42:00;;;;;;;;;;;;;;;28.04;45.73;100136.22;4937515;29;19969;-71
2022/07/02 09:44:28;;;;;;;;;;;;;;;28.04;45.88;100136.22;4937179;29;19923;-71
2022/07/02 09:46:57;;;;;;;;;;;;;;;28.04;45.91;100136.22;4937752;29;20262;-70
2022/07/02 09:49:27;;;;;;;;;;;;;;;28.00;46.02;100135.59;4937081;29;19923;-71
2022/07/02 09:51:55;;;;;;;;;;;;;;;27.92;45.81;100129.94;4937124;29;20013;-71
2022/07/02 09:54:25;;;;;;;;;;;;;;;27.99;46.49;100135.63;4937484;29;19923;-72
2022/07/02 09:56:54;;;;;;;;;;;;;;;28.18;46.11;100125.66;4936737;29;20017;-71
2022/07/02 09:59:23;;;;;;;;;;;;;;;28.38;45.92;100120.78;4937418;29;19933;-70
2022/07/02 10:01:52;;;;;;;;;;;;;;;28.39;45.51;100129.47;4927558;29;20356;-72
2022/07/02 10:04:29;;;;;;;;;;;;;;;28.53;44.98;100130.22;4926543;29;19961;-72
2022/07/02 10:06:58;;;;;;;;;;;;;;;28.60;44.88;100125.44;4933964;29;19977;-72
2022/07/02 10:09:27;;;;;;;;;;;;;;;28.56;44.91;100129.19;4931428;29;19930;-72
2022/07/02 10:11:56;;;;;;;;;;;;;;;28.57;44.75;100130.88;4930766;29;19961;-72
2022/07/02 10:14:26;;;;;;;;;;;;;;;28.62;45.11;100128.81;4934756;29;20364;-71
2022/07/02 10:16:56;;;;;;;;;;;;;;;28.62;45.03;100123.56;4934478;29;19931;-73
2022/07/02 10:19:26;;;;;;;;;;;;;;;28.57;45.03;100125.63;4934571;29;19938;-71
2022/07/02 10:21:57;;;;;;;;;;;;;;;28.74;45.10;100133.25;4930926;29;19923;-71
2022/07/02 10:24:26;;;;;;;;;;;;;;;28.82;44.77;100120.38;4931208;29;19922;-71
2022/07/02 10:26:55;;;;;;;;;;;;;;;28.79;44.27;100123.25;4931173;29;19922;-70
2022/07/02 10:29:24;;;;;;;;;;;;;;;28.61;44.17;100119.22;4932572;29;20009;-70
2022/07/02 10:31:58;;;;;;;;;;;;;;;28.56;44.52;100113.41;4932013;29;20365;-71
2022/07/02 10:34:36;;;;;;;;;;;;;;;28.74;45.07;100121.88;4920473;29;20333;-71
2022/07/02 10:37:07;;;;;;;;;;;;;;;28.71;44.17;100116.81;4936673;29;19986;-71
2022/07/02 10:39:39;;;;;;;;;;;;;;;28.62;44.74;100118.31;4936959;29;19930;-70
2022/07/02 10:42:08;;;;;;;;;;;;;;;28.75;44.51;100113.88;4931343;29;20014;-71
2022/07/02 10:44:38;;;;;;;;;;;;;;;28.79;44.25;100118.00;4937655;29;20025;-70
2022/07/02 10:47:16;;;;;;;;;;;;;;;28.61;44.09;100121.88;4937899;29;19922;-70
2022/07/02 10:49:45;;;;;;;;;;;;;;;28.58;44.16;100111.53;4937621;29;19926;-73
2022/07/02 10:52:39;;;;;;;;;;;;;;;28.66;44.19;100125.03;4937927;29;19978;-71
2022/07/02 10:55:08;;;;;;;;;;;;;;;28.72;44.26;100124.63;4921446;29;19923;-72
2022/07/02 10:57:36;;;;;;;;;;;;;;;28.54;44.20;100121.41;4933395;29;19927;-72
2022/07/02 11:00:06;;;;;;;;;;;;;;;28.49;44.51;100112.16;4922338;29;19938;-72
2022/07/02 11:02:35;;;;;;;;;;;;;;;28.60;44.77;100117.56;4937646;29;20009;-69
2022/07/02 11:05:12;;;;;;;;;;;;;;;28.65;44.25;100123.31;4939690;29;19994;-73
2022/07/02 11:07:45;;;;;;;;;;;;;;;28.66;44.32;100119.78;4939982;29;19922;-69
2022/07/02 11:10:13;;;;;;;;;;;;;;;28.69;43.88;100114.31;4939510;29;19931;-72
2022/07/02 11:12:46;;;;;;;;;;;;;;;28.62;44.74;100120.94;4936609;29;19922;-70
2022/07/02 11:15:18;;;;;;;;;;;;;;;28.66;44.40;100118.91;4938162;29;19922;-72
2022/07/02 11:17:49;;;;;;;;;;;;;;;28.66;44.20;100117.13;4929958;29;19927;-71
2022/07/02 11:20:23;;;;;;;;;;;;;;;28.66;43.94;100118.91;4936767;29;20017;-72
2022/07/02 11:22:53;;;;;;;;;;;;;;;28.69;44.45;100122.19;4916617;29;20274;-72
2022/07/02 11:25:22;;;;;;;;;;;;;;;28.61;43.93;100119.22;4936959;29;20021;-71
2022/07/02 11:27:57;;;;;;;;;;;;;;;28.62;44.30;100120.94;4936479;29;19927;-72
2022/07/02 11:30:27;;;;;;;;;;;;;;;28.64;44.23;100116.41;4935629;29;20389;-70
2022/07/02 11:32:55;;;;;;;;;;;;;;;28.56;44.25;100113.41;4935043;29;19970;-70
2022/07/02 11:35:24;;;;;;;;;;;;;;;28.73;44.75;100114.94;4933904;29;21463;-71
2022/07/02 11:37:57;;;;;;;;;;;;;;;28.79;44.33;100120.63;4935706;29;20341;-73
2022/07/02 11:40:26;;;;;;;;;;;;;;;28.62;44.10;100123.56;4937072;29;20005;-72
2022/07/02 11:42:54;;;;;;;;;;;;;;;28.52;44.32;100111.94;4934723;29;19929;-70
2022/07/02 11:45:23;;;;;;;;;;;;;;;28.50;44.14;100119.09;4934047;29;20325;-72
2022/07/02 11:47:52;;;;;;;;;;;;;;;28.49;43.98;100117.41;4932971;29;19930;-72
2022/07/02 11:50:27;;;;;;;;;;;;;;;28.52;43.99;100117.19;4939239;29;19923;-72
2022/07/02 11:52:58;;;;;;;;;;;;;;;28.50;43.65;100119.09;4919288;29;20349;-71
2022/07/02 11:55:27;;;;;;;;;;;;;;;28.58;43.76;100113.34;4933971;29;20064;-72
2022/07/02 11:57:56;;;;;;;;;;;;;;;28.61;43.87;100113.97;4932349;29;19971;-72
2022/07/02 12:00:29;;;;;;;;;;;;;;;28.77;43.90;100106.72;4934956;29;19922;-71
2022/07/02 12:02:58;;;;;;;;;;;;;;;28.84;43.57;100118.50;4936202;29;19969;-72
2022/07/02 12:05:26;;;;;;;;;;;;;;;28.68;43.67;100117.03;4929232;29;19977;-70
2022/07/02 12:07:55;;;;;;;;;;;;;;;28.42;43.51;100110.88;4934651;29;20017;-71
2022/07/02 12:10:25;;;;;;;;;;;;;;;28.32;43.92;100110.66;4933313;29;19930;-73
2022/07/02 12:12:54;;;;;;;;;;;;;;;28.22;44.24;100120.09;4936420;29;19981;-72
2022/07/02 12:15:22;;;;;;;;;;;;;;;28.14;44.12;100116.28;4934750;29;20373;-70
2022/07/02 12:17:51;;;;;;;;;;;;;;;28.26;44.34;100112.88;4936641;29;20013;-72
2022/07/02 12:20:19;;;;;;;;;;;;;;;28.27;43.99;100107.50;4937924;29;19982;-70
2022/07/02 12:22:56;;;;;;;;;;;;;;;28.36;44.54;100111.31;4936659;29;21025;-73
2022/07/02 12:25:29;;;;;;;;;;;;;;;28.49;44.42;100110.38;4932656;29;19949;-73
2022/07/02 12:27:57;;;;;;;;;;;;;;;28.64;44.23;100113.78;4937193;29;19978;-72
2022/07/02 12:30:29;;;;;;;;;;;;;;;28.77;43.84;100106.72;4938629;29;19922;-72
2022/07/02 12:32:57;;;;;;;;;;;;;;;28.72;43.71;100098.34;4937644;29;20028;-71
2022/07/02 12:35:26;;;;;;;;;;;;;;;28.65;43.98;100107.56;4934363;29;19954;-72
2022/07/02 12:38:03;;;;;;;;;;;;;;;28.46;44.18;100107.09;4932867;29;20328;-72
2022/07/02 12:40:34;;;;;;;;;;;;;;;28.20;44.25;100111.47;4934030;29;19923;-72
2022/07/02 12:43:04;;;;;;;;;;;;;;;28.12;44.50;100112.94;4934088;29;20416;-70
2022/07/02 12:45:34;;;;;;;;;;;;;;;27.97;44.29;100099.00;4933493;29;20361;-72
2022/07/02 12:48:03;;;;;;;;;;;;;;;28.01;44.49;100104.91;4934336;29;19923;-71
2022/07/02 12:50:32;;;;;;;;;;;;;;;27.88;44.19;100100.44;4934720;29;19927;-71
2022/07/02 12:53:02;;;;;;;;;;;;;;;27.73;44.12;100093.56;4936258;29;19922;-71
2022/07/02 12:55:32;;;;;;;;;;;;;;;27.79;44.31;100087.91;4935155;29;19922;-73
2022/07/02 12:58:07;;;;;;;;;;;;;;;27.98;44.56;100089.34;4934278;29;19926;-72
2022/07/02 13:00:36;;;;;;;;;;;;;;;27.91;44.31;100089.72;4934421;29;19946;-71
2022/07/02 13:03:05;;;;;;;;;;;;;;;27.81;44.68;100078.16;4933514;29;20022;-71